Latest Coastal Weather Observations for Hopetoun North

IDW60701

Issued at 10:32 am WST Monday 31 August 2015 (issued every 10 minutes, with the page automatically refreshed every 10 minutes)

About coastal observations | Map of coastal stations | Coastal observations for WA | Marine services | Other Formats
Station Details ID: 009961 Name: HOPETOUN NORTH Lat: -33.93 Lon: 120.13 Height: 26.0 m
Data from the previous 72 hours. | See also: Recent months at Hopetoun North
Date/Time
WST
Temp

°C
Wind Pressure Rain
since 9am
mm
Weather Cloud Vis
km
Sea
Height
m
Swell
Dir
 
Speed
knots
Gust
knots
hPa Trend Height
m
Period
s
Dir
31/10:30am 13.6 NNW 9 15 1015.4 - 0.0 - - - - - - -
31/10:00am 13.3 NNW 9 14 1015.9 - 0.0 - - - - - - -
31/09:30am 11.7 NNW 10 17 1016.3 - 0.0 - - - - - - -
31/09:00am 10.9 N 11 19 1016.9 - 0.0 - - - - - - -
31/08:30am 10.4 N 10 14 1017.1 - 0.0 - - - - - - -
31/08:00am 9.6 N 8 13 1017.2 - 0.0 - - - - - - -
31/07:30am 8.8 N 6 10 1017.3 - 0.0 - - - - - - -
31/07:00am 8.2 N 7 10 1017.5 - 0.0 - - - - - - -
31/06:30am 8.2 NNW 8 10 1017.3 - 0.0 - - - - - - -
31/06:00am 8.2 N 6 9 1017.0 - 0.0 - - - - - - -
31/05:30am 7.7 N 5 7 1016.9 - 0.0 - - - - - - -
31/05:00am 7.1 CALM 0 2 1016.9 - 0.0 - - - - - - -
31/04:30am 7.1 NE 6 7 1016.7 - 0.0 - - - - - - -
31/04:00am 7.1 NNE 3 4 1017.4 - 0.0 - - - - - - -
31/03:30am 7.3 NE 3 4 1017.3 - 0.0 - - - - - - -
31/03:00am 7.3 NNE 4 5 1017.7 - 0.0 - - - - - - -
31/02:30am 8.0 NNE 5 7 1017.8 - 0.0 - - - - - - -
31/02:00am 6.9 NNE 4 5 1018.1 - 0.0 - - - - - - -
31/01:30am 7.6 NE 6 7 1018.2 - 0.0 - - - - - - -
31/01:00am 8.8 NE 5 6 1018.9 - 0.0 - - - - - - -
31/12:30am 9.7 NNE 4 5 1019.3 - 0.0 - - - - - - -
31/12:00am 9.9 NNE 3 4 1019.5 - 0.0 - - - - - - -
 
Date/Time
WST
Temp

°C
Wind Pressure Rain
since 9am
mm
Weather Cloud Vis
km
Sea
Height
m
Swell
Dir
 
Speed
knots
Gust
knots
hPa Trend Height
m
Period
s
Dir
30/11:30pm 9.9 NE 3 4 1019.9 - 0.0 - - - - - - -
30/11:00pm 12.0 NE 3 4 1020.1 - 0.0 - - - - - - -
30/10:30pm 12.4 NNE 2 4 1020.2 - 0.0 - - - - - - -
30/10:00pm 10.4 NNE 3 5 1020.5 - 0.0 - - - - - - -
30/09:30pm 10.8 WSW 2 5 1020.7 - 0.0 - - - - - - -
30/09:00pm 11.4 SSW 3 4 1020.8 - 0.0 - - - - - - -
30/08:30pm 11.3 SSW 3 4 1020.7 - 0.0 - - - - - - -
30/08:00pm 11.2 SSW 3 4 1020.6 - 0.0 - - - - - - -
30/07:30pm 11.2 SSW 4 6 1020.6 - 0.0 - - - - - - -
30/07:00pm 11.0 SSW 5 7 1020.2 - 0.0 - - - - - - -
30/06:30pm 11.5 SSW 7 11 1020.0 - 0.0 - - - - - - -
30/06:00pm 11.6 SSW 7 10 1019.7 - 0.0 - - - - - - -
30/05:30pm 12.1 SSW 9 12 1019.4 - 0.0 - - - - - - -
30/05:00pm 12.4 SSW 10 15 1019.2 - 0.0 - - - - - - -
30/04:30pm 13.1 SSW 9 13 1018.9 - 0.0 - - - - - - -
30/04:00pm 13.8 SSW 12 16 1018.5 - 0.0 - - - - - - -
30/03:30pm 13.6 SSW 12 17 1018.2 - 0.0 - - - - - - -
30/03:00pm 14.7 SSW 13 18 1018.0 - 0.0 - - - - - - -
30/02:30pm 15.8 SSW 12 17 1017.8 - 0.0 - - - - - - -
30/02:00pm 17.1 SSW 14 19 1017.6 - 0.0 - - - - - - -
30/01:30pm 16.5 SSW 14 18 1017.5 - 0.0 - - - - - - -
30/01:00pm 17.0 SW 14 18 1017.6 - 0.0 - - - - - - -
30/12:30pm 17.5 SW 15 20 1017.8 - 0.0 - - - - - - -
30/12:00pm 16.1 SW 15 20 1017.8 - 0.0 - - - - - - -
30/11:30am 16.8 SW 14 19 1017.9 - 0.0 - - - - - - -
30/11:00am 16.6 SW 13 18 1017.9 - 0.0 - - - - - - -
30/10:30am 16.9 WSW 13 20 1017.8 - 0.0 - - - - - - -
30/10:00am 16.5 WSW 15 22 1017.5 - 0.0 - - - - - - -
30/09:30am 15.8 WSW 14 22 1017.4 - 0.0 - - - - - - -
30/09:00am 15.7 WSW 15 23 1017.0 - 0.0 - - - - - - -
30/08:30am 15.2 W 11 16 1016.7 - 0.0 - - - - - - -
30/08:00am 13.8 W 8 12 1016.1 - 0.0 - - - - - - -
30/07:30am 13.6 WNW 6 9 1015.5 - 0.0 - - - - - - -
30/07:00am 13.8 WNW 7 10 1014.9 - 0.0 - - - - - - -
30/06:30am 13.6 W 7 11 1014.5 - 0.0 - - - - - - -
30/06:00am 13.8 W 8 11 1014.1 - 0.0 - - - - - - -
30/05:30am 13.9 W 9 13 1013.9 - 0.0 - - - - - - -
30/05:00am 13.4 WNW 6 10 1013.5 - 0.0 - - - - - - -
30/04:30am 12.6 NW 3 5 1013.1 - 0.0 - - - - - - -
30/04:00am 11.9 N 3 4 1012.6 - 0.0 - - - - - - -
30/03:30am 11.6 NNE 3 4 1012.6 - 0.0 - - - - - - -
30/03:00am 11.9 N 3 5 1012.4 - 0.0 - - - - - - -
30/02:30am 10.1 NNW 5 7 1012.5 - 0.0 - - - - - - -
30/02:00am 10.0 N 3 4 1012.5 - 0.0 - - - - - - -
30/01:30am 10.4 N 4 7 1012.4 - 0.0 - - - - - - -
30/01:00am 10.8 NNW 4 6 1012.4 - 0.0 - - - - - - -
30/12:30am 11.3 NNW 4 6 1012.4 - 0.0 - - - - - - -
30/12:00am 12.5 NNW 4 5 1012.1 - 0.0 - - - - - - -
 
Date/Time
WST
Temp

°C
Wind Pressure Rain
since 9am
mm
Weather Cloud Vis
km
Sea
Height
m
Swell
Dir
 
Speed
knots
Gust
knots
hPa Trend Height
m
Period
s
Dir
29/11:30pm 13.1 NW 4 6 1012.1 - 0.0 - - - - - - -
29/11:00pm 13.2 NW 4 6 1012.1 - 0.0 - - - - - - -
29/10:30pm 14.4 NNW 4 6 1012.1 - 0.0 - - - - - - -
29/10:00pm 15.7 NW 6 10 1012.0 - 0.0 - - - - - - -
29/09:30pm 16.1 WNW 6 9 1012.0 - 0.0 - - - - - - -
29/09:00pm 17.2 WNW 6 9 1011.9 - 0.0 - - - - - - -
29/08:30pm 17.8 WNW 8 14 1011.5 - 0.0 - - - - - - -
29/08:00pm 18.4 WNW 9 14 1011.3 - 0.0 - - - - - - -
29/07:30pm 19.1 NW 9 16 1011.1 - 0.0 - - - - - - -
29/07:00pm 18.5 NW 7 10 1010.7 - 0.0 - - - - - - -
29/06:30pm 17.4 NNW 5 7 1010.3 - 0.0 - - - - - - -
29/06:00pm 15.9 NNE 3 4 1009.9 - 0.0 - - - - - - -
29/05:30pm 16.4 NE 3 4 1009.6 - 0.0 - - - - - - -
29/05:00pm 17.1 ENE 4 5 1009.3 - 0.0 - - - - - - -
29/04:30pm 17.6 E 2 3 1009.1 - 0.0 - - - - - - -
29/04:00pm 17.9 ENE 2 3 1009.0 - 0.0 - - - - - - -
29/03:30pm 17.9 ENE 3 5 1009.0 - 0.0 - - - - - - -
29/03:00pm 18.0 ESE 5 8 1009.2 - 0.0 - - - - - - -
29/02:30pm 17.9 SE 6 7 1009.2 - 0.0 - - - - - - -
29/02:00pm 18.6 SSE 7 9 1009.1 - 0.0 - - - - - - -
29/01:30pm 18.4 SSE 7 9 1009.2 - 0.0 - - - - - - -
29/01:00pm 18.8 SSE 7 9 1009.6 - 0.0 - - - - - - -
29/12:30pm 17.2 S 7 10 1010.1 - 0.0 - - - - - - -
29/12:00pm 20.0 SSE 6 9 1010.6 - 0.0 - - - - - - -
29/11:30am 22.5 WNW 4 9 1011.2 - 0.0 - - - - - - -
29/11:00am 21.3 NW 5 8 1011.7 - 0.0 - - - - - - -
29/10:30am 20.9 N 4 5 1012.2 - 0.0 - - - - - - -
29/10:00am 19.2 NNE 2 4 1012.5 - 0.0 - - - - - - -
29/09:30am 18.3 NNE 4 7 1013.0 - 0.0 - - - - - - -
29/09:00am 17.7 NNE 4 8 1013.2 - 0.0 - - - - - - -
29/08:30am 17.3 N 3 4 1013.3 - 0.0 - - - - - - -
29/08:00am 15.7 NNE 4 6 1013.5 - 0.0 - - - - - - -
29/07:30am 13.6 N 3 4 1013.6 - 0.0 - - - - - - -
29/07:00am 12.1 NNE 5 8 1013.5 - 0.0 - - - - - - -
29/06:30am 8.7 NNE 6 8 1013.2 - 0.0 - - - - - - -
29/06:00am 7.9 NE 5 6 1013.0 - 0.0 - - - - - - -
29/05:30am 8.5 NE 4 6 1013.2 - 0.0 - - - - - - -
29/05:00am 8.1 N 4 5 1013.4 - 0.0 - - - - - - -
29/04:30am 8.2 NE 6 7 1013.3 - 0.0 - - - - - - -
29/04:00am 8.7 NNE 4 5 1013.6 - 0.0 - - - - - - -
29/03:30am 9.0 NNE 5 6 1013.6 - 0.0 - - - - - - -
29/03:00am 9.7 CALM 0 3 1013.6 - 0.0 - - - - - - -
29/02:30am 11.0 N 4 6 1013.7 - 0.0 - - - - - - -
29/02:00am 11.4 N 5 7 1013.8 - 0.0 - - - - - - -
29/01:30am 11.1 N 4 6 1014.1 - 0.0 - - - - - - -
29/01:00am 9.0 NE 5 7 1014.4 - 0.0 - - - - - - -
29/12:30am 10.1 NE 4 6 1014.4 - 0.0 - - - - - - -
29/12:00am 12.1 N 4 9 1014.8 - 0.0 - - - - - - -
 
Date/Time
WST
Temp

°C
Wind Pressure Rain
since 9am
mm
Weather Cloud Vis
km
Sea
Height
m
Swell
Dir
 
Speed
knots
Gust
knots
hPa Trend Height
m
Period
s
Dir
28/11:30pm 10.0 NNE 6 8 1015.1 - 0.0 - - - - - - -
28/11:00pm 9.4 NE 7 10 1015.2 - 0.0 - - - - - - -
28/10:30pm 9.8 NE 6 8 1015.2 - 0.0 - - - - - - -
28/10:00pm 10.6 NE 5 7 1015.1 - 0.0 - - - - - - -
28/09:30pm 12.0 NNE 2 3 1015.4 - 0.0 - - - - - - -
28/09:00pm 14.4 W 7 8 1015.3 - 0.0 - - - - - - -
28/08:30pm 15.7 WNW 5 5 1015.3 - 0.0 - - - - - - -
28/08:00pm 15.3 W 4 5 1015.2 - 0.0 - - - - - - -
28/07:30pm 14.3 N 2 3 1014.9 - 0.0 - - - - - - -
28/07:00pm 18.2 NW 5 7 1014.6 - 0.0 - - - - - - -
28/06:30pm 16.6 NW 5 7 1014.3 - 0.0 - - - - - - -
28/06:00pm 17.2 NW 4 6 1014.0 - 0.0 - - - - - - -
28/05:30pm 18.2 WNW 4 6 1013.9 - 0.0 - - - - - - -
28/05:00pm 19.6 WNW 5 9 1013.4 - 0.0 - - - - - - -
28/04:30pm 21.2 NW 6 11 1013.1 - 0.0 - - - - - - -
28/04:00pm 22.3 WNW 7 12 1013.0 - 0.0 - - - - - - -
28/03:30pm 22.8 NW 11 22 1012.7 - 0.0 - - - - - - -
28/03:00pm 23.2 NNW 9 16 1012.8 - 0.0 - - - - - - -
28/02:30pm 23.1 NW 10 17 1013.0 - 0.0 - - - - - - -
28/02:00pm 23.0 NNW 9 17 1013.1 - 0.0 - - - - - - -
28/01:30pm 22.5 NNW 11 16 1013.2 - 0.0 - - - - - - -
28/01:00pm 22.2 NNW 13 18 1013.6 - 0.0 - - - - - - -
28/12:30pm 22.1 N 10 18 1014.1 - 0.0 - - - - - - -
28/12:00pm 21.3 N 9 14 1014.7 - 0.0 - - - - - - -
28/11:30am 20.9 NNW 10 16 1015.3 - 0.0 - - - - - - -
28/11:00am 20.3 N 9 15 1015.5 - 0.0 - - - - - - -

Other Formats:

Comma delimited format used in spreadsheet applications
http://www.bom.gov.au/fwo/IDW60701/IDW60701.95635.axf

JavaScript Object Notation format (JSON) in row-major order
http://www.bom.gov.au/fwo/IDW60701/IDW60701.95635.json